Time;durP1;ratioP1;P1;durP2;ratioP2;P2;SDS_P1;SDS_P2;PMS_P1;PMS_P2;Temp;Humidity;BMP_temperature;BMP_pressure;BME280_temperature;BME280_humidity;BME280_pressure;Samples;Min_cycle;Max_cycle;Signal;HPM_P1;HPM_P2
2023/05/24 00:00:11;;;;;;;10.48;4.25;;;;;;;17.27;64.32;100012.67;1685877;84;21094;-73
2023/05/24 00:02:40;;;;;;;10.65;4.30;;;;;;;17.26;64.34;100019.30;1715402;83;21507;-77
2023/05/24 00:05:10;;;;;;;9.68;4.72;;;;;;;17.21;64.51;100021.98;1715624;84;21078;-74
2023/05/24 00:07:40;;;;;;;8.85;4.55;;;;;;;17.20;64.60;100019.46;1715346;84;21091;-74
2023/05/24 00:10:11;;;;;;;9.95;5.03;;;;;;;17.17;64.68;100023.57;1715269;84;21494;-73
2023/05/24 00:12:40;;;;;;;9.03;4.70;;;;;;;17.14;64.87;100023.23;1715261;84;21544;-74
2023/05/24 00:15:11;;;;;;;7.58;4.50;;;;;;;17.14;64.97;100019.08;1715341;84;21055;-72
2023/05/24 00:17:41;;;;;;;8.30;4.15;;;;;;;17.15;65.01;100010.52;1715334;84;21490;-72
2023/05/24 00:20:11;;;;;;;11.80;4.78;;;;;;;17.06;65.11;100009.25;1715367;83;21547;-75
2023/05/24 00:22:40;;;;;;;9.83;4.83;;;;;;;17.02;65.20;100018.60;1715601;84;21524;-74
2023/05/24 00:25:09;;;;;;;11.97;4.87;;;;;;;16.97;65.40;100012.97;1685577;84;21150;-73
2023/05/24 00:27:39;;;;;;;9.13;4.78;;;;;;;16.95;65.65;100018.47;1715438;83;21118;-74
2023/05/24 00:30:08;;;;;;;11.97;5.03;;;;;;;16.94;65.71;100016.78;1715305;84;21521;-73
2023/05/24 00:32:38;;;;;;;8.63;4.95;;;;;;;16.92;65.74;100024.50;1715284;84;21034;-73
2023/05/24 00:35:25;;;;;;;9.25;4.67;;;;;;;16.90;65.90;100021.11;1715518;84;21138;-73
2023/05/24 00:38:12;;;;;;;10.13;4.62;;;;;;;16.88;65.96;100019.13;1715448;84;21078;-74
2023/05/24 00:40:41;;;;;;;11.90;5.50;;;;;;;16.79;66.15;100019.53;1715616;84;21078;-74
2023/05/24 00:43:11;;;;;;;8.05;4.40;;;;;;;16.77;66.35;100023.09;1715296;84;21509;-75
2023/05/24 00:45:41;;;;;;;9.25;4.25;;;;;;;16.74;66.49;100027.73;1715488;84;21076;-74
2023/05/24 00:48:10;;;;;;;12.60;5.35;;;;;;;16.76;66.66;100031.09;1686009;84;21115;-74
2023/05/24 00:50:39;;;;;;;9.28;5.08;;;;;;;16.76;66.74;100025.56;1715238;84;21031;-73
2023/05/24 00:53:08;;;;;;;8.75;4.78;;;;;;;16.82;66.66;100035.34;1715304;84;21043;-74
2023/05/24 00:55:37;;;;;;;9.45;4.80;;;;;;;16.86;66.57;100028.23;1715585;84;21182;-73
2023/05/24 00:58:06;;;;;;;14.28;5.35;;;;;;;16.92;66.46;100023.11;1715419;83;21491;-74
2023/05/24 01:00:36;;;;;;;9.20;4.65;;;;;;;16.90;66.46;100022.48;1714985;84;21469;-74
2023/05/24 01:03:05;;;;;;;8.53;4.97;;;;;;;16.88;66.53;100023.28;1715149;84;21466;-74
2023/05/24 01:05:34;;;;;;;9.33;5.20;;;;;;;16.88;66.58;100019.13;1715325;83;21054;-73
2023/05/24 01:08:16;;;;;;;8.03;4.83;;;;;;;16.89;66.59;100023.03;1715370;84;21066;-72
2023/05/24 01:10:54;;;;;;;8.95;5.03;;;;;;;16.90;66.40;100022.48;1715233;82;21106;-73
2023/05/24 01:13:37;;;;;;;9.13;5.00;;;;;;;16.86;66.51;100020.77;1715376;82;21063;-73
2023/05/24 01:16:20;;;;;;;9.00;4.90;;;;;;;16.88;66.52;100023.28;1715165;84;21054;-73
2023/05/24 01:18:54;;;;;;;7.00;4.42;;;;;;;16.87;66.54;100022.44;1715222;84;21447;-72
2023/05/24 01:21:56;;;;;;;13.18;5.53;;;;;;;16.86;66.62;100021.31;1714571;84;21062;-76
2023/05/24 01:24:49;;;;;;;10.20;5.10;;;;;;;16.86;66.64;100026.30;1715104;84;21051;-72
2023/05/24 01:27:18;;;;;;;7.95;5.00;;;;;;;16.83;66.63;100030.94;1697558;84;21019;-73
2023/05/24 01:29:52;;;;;;;10.00;4.97;;;;;;;16.80;66.77;100032.28;1715372;84;21095;-73
2023/05/24 01:32:20;;;;;;;9.08;5.20;;;;;;;16.80;66.83;100035.59;1714937;84;21070;-73
2023/05/24 01:34:49;;;;;;;9.60;5.30;;;;;;;16.79;66.84;100038.91;1715273;84;21043;-73
2023/05/24 01:37:18;;;;;;;10.78;5.08;;;;;;;16.82;66.86;100039.49;1715233;83;21062;-73
2023/05/24 01:39:47;;;;;;;9.73;5.17;;;;;;;16.83;66.84;100045.33;1715354;84;21086;-73
2023/05/24 01:42:26;;;;;;;29.52;6.20;;;;;;;16.81;66.98;100046.95;1715278;83;21067;-73
2023/05/24 01:45:18;;;;;;;10.90;4.83;;;;;;;16.80;67.16;100048.88;1715380;82;21050;-74
2023/05/24 01:48:17;;;;;;;13.43;5.40;;;;;;;16.73;67.39;100046.80;1715295;84;21047;-76
2023/05/24 01:50:51;;;;;;;12.00;5.30;;;;;;;16.65;67.74;100040.28;1714505;84;21048;-75
2023/05/24 01:53:19;;;;;;;8.78;4.95;;;;;;;16.62;67.99;100039.36;1686656;84;21506;-74
2023/05/24 01:55:48;;;;;;;10.05;4.87;;;;;;;16.64;68.03;100038.57;1715087;83;21071;-75
2023/05/24 01:58:17;;;;;;;13.88;7.75;;;;;;;16.70;68.01;100040.92;1715393;84;21015;-73
2023/05/24 02:00:47;;;;;;;11.60;5.33;;;;;;;16.73;67.93;100044.04;1715424;84;21074;-73
2023/05/24 02:03:16;;;;;;;14.65;5.20;;;;;;;16.79;67.82;100039.45;1715240;84;21035;-73
2023/05/24 02:05:45;;;;;;;10.98;4.62;;;;;;;16.84;67.74;100036.77;1715466;84;21063;-73
2023/05/24 02:08:14;;;;;;;10.20;5.10;;;;;;;16.89;67.67;100041.02;1715584;84;21046;-77
2023/05/24 02:10:42;;;;;;;6.97;5.17;;;;;;;16.89;67.48;100028.56;1715643;84;21074;-73
2023/05/24 02:13:12;;;;;;;11.80;5.35;;;;;;;16.87;67.43;100036.82;1715444;84;21114;-75
2023/05/24 02:15:43;;;;;;;13.48;5.50;;;;;;;16.86;67.54;100044.83;1715522;82;21023;-73
2023/05/24 02:18:13;;;;;;;12.28;5.08;;;;;;;16.87;67.57;100043.73;1715352;84;21046;-73
2023/05/24 02:20:42;;;;;;;14.45;5.80;;;;;;;16.89;67.50;100042.41;1715392;84;21039;-74
2023/05/24 02:23:12;;;;;;;8.73;4.87;;;;;;;16.89;67.51;100047.94;1715331;83;21094;-73
2023/05/24 02:25:40;;;;;;;9.03;4.40;;;;;;;16.87;67.55;100055.65;1715381;82;21078;-72
2023/05/24 02:28:11;;;;;;;9.68;4.97;;;;;;;16.85;67.62;100055.59;1711987;83;21465;-74
2023/05/24 02:30:43;;;;;;;8.40;4.33;;;;;;;16.85;67.67;100048.68;1697638;84;21071;-73
2023/05/24 02:33:11;;;;;;;13.30;5.17;;;;;;;16.85;67.75;100047.30;1698142;84;21107;-73
2023/05/24 02:35:40;;;;;;;6.72;4.60;;;;;;;16.78;67.91;100055.20;1698041;84;21534;-74
2023/05/24 02:38:09;;;;;;;10.72;4.75;;;;;;;16.75;68.13;100054.31;1698090;84;21055;-73
2023/05/24 02:40:40;;;;;;;27.73;6.20;;;;;;;16.72;68.21;100056.73;1697871;84;21087;-72
2023/05/24 02:43:09;;;;;;;15.65;5.08;;;;;;;16.69;68.42;100056.69;1698193;84;21071;-73
2023/05/24 02:45:39;;;;;;;8.23;4.87;;;;;;;16.68;68.63;100068.00;1697941;84;21087;-73
2023/05/24 02:48:07;;;;;;;7.75;4.65;;;;;;;16.68;68.65;100066.61;1698213;84;21048;-74
2023/05/24 02:50:37;;;;;;;11.43;4.90;;;;;;;16.70;68.73;100058.91;1698039;84;21102;-74
2023/05/24 02:53:07;;;;;;;9.60;5.08;;;;;;;16.71;68.74;100059.20;1698086;84;21091;-74
2023/05/24 02:55:37;;;;;;;8.78;4.95;;;;;;;16.69;68.80;100062.22;1697894;84;21063;-72
2023/05/24 02:58:07;;;;;;;9.95;4.60;;;;;;;16.67;68.91;100056.64;1698063;84;21032;-74
2023/05/24 03:00:37;;;;;;;7.58;4.10;;;;;;;16.64;69.05;100063.47;1698096;84;21048;-73
2023/05/24 03:03:07;;;;;;;8.60;4.35;;;;;;;16.60;69.26;100065.05;1697951;84;21557;-73
2023/05/24 03:05:36;;;;;;;10.43;4.67;;;;;;;16.58;69.42;100063.61;1697863;84;21059;-73
2023/05/24 03:08:06;;;;;;;9.05;4.37;;;;;;;16.55;69.62;100063.56;1698068;84;21008;-73
2023/05/24 03:10:36;;;;;;;9.25;4.50;;;;;;;16.56;69.76;100065.23;1697904;84;21534;-74
2023/05/24 03:13:07;;;;;;;8.60;4.30;;;;;;;16.54;69.76;100068.79;1697964;84;21111;-73
2023/05/24 03:15:38;;;;;;;7.95;4.60;;;;;;;16.52;69.96;100073.73;1698068;84;21090;-73
2023/05/24 03:18:08;;;;;;;8.03;4.50;;;;;;;16.53;70.06;100067.66;1698084;84;21040;-73
2023/05/24 03:20:37;;;;;;;11.70;4.60;;;;;;;16.55;70.10;100070.47;1697962;84;21151;-73
2023/05/24 03:23:08;;;;;;;8.83;4.25;;;;;;;16.56;70.11;100074.92;1698198;84;21063;-73
2023/05/24 03:25:38;;;;;;;12.50;4.80;;;;;;;16.51;70.23;100080.34;1698048;84;21052;-74
2023/05/24 03:28:06;;;;;;;10.18;4.40;;;;;;;16.52;70.37;100075.11;1698232;83;21122;-74
2023/05/24 03:30:36;;;;;;;10.70;4.80;;;;;;;16.54;70.45;100078.47;1715219;84;21067;-72
2023/05/24 03:33:05;;;;;;;9.93;4.50;;;;;;;16.59;70.46;100078.58;1715278;84;21090;-75
2023/05/24 03:35:33;;;;;;;11.78;4.87;;;;;;;16.63;70.48;100080.31;1715586;84;21470;-73
2023/05/24 03:38:04;;;;;;;9.13;4.85;;;;;;;16.67;70.42;100079.61;1715337;84;21051;-73
2023/05/24 03:40:35;;;;;;;12.37;5.00;;;;;;;16.73;70.27;100079.17;1715289;84;21058;-73
2023/05/24 03:43:09;;;;;;;16.67;7.20;;;;;;;16.78;70.08;100082.88;1714708;84;21460;-74
2023/05/24 03:45:40;;;;;;;12.03;5.50;;;;;;;16.84;69.95;100074.13;1714468;84;21110;-74
2023/05/24 03:48:10;;;;;;;21.33;6.10;;;;;;;16.87;69.88;100072.25;1715400;83;21548;-73
2023/05/24 03:50:39;;;;;;;14.80;5.65;;;;;;;16.89;69.87;100072.01;1715375;82;21490;-73
2023/05/24 03:53:09;;;;;;;23.18;6.67;;;;;;;16.94;69.73;100074.91;1715632;84;21507;-74
2023/05/24 03:55:39;;;;;;;8.73;5.58;;;;;;;16.96;69.69;100077.72;1715504;82;21043;-73
2023/05/24 03:58:08;;;;;;;15.68;5.70;;;;;;;17.04;69.61;100086.17;1685127;84;21063;-73
2023/05/24 04:00:37;;;;;;;15.88;6.45;;;;;;;17.14;69.45;100081.37;1715249;83;21058;-73
2023/05/24 04:03:07;;;;;;;13.70;5.35;;;;;;;17.23;69.16;100086.25;1715252;84;21019;-74
2023/05/24 04:05:37;;;;;;;10.40;5.83;;;;;;;17.31;68.92;100079.47;1715282;84;21458;-73
2023/05/24 04:08:07;;;;;;;14.05;5.75;;;;;;;17.39;68.79;100080.44;1715359;84;21517;-73
2023/05/24 04:10:38;;;;;;;14.38;6.22;;;;;;;17.49;68.47;100082.00;1715496;84;21537;-73
2023/05/24 04:13:08;;;;;;;11.78;5.70;;;;;;;17.58;68.17;100078.30;1715302;84;21471;-74
2023/05/24 04:15:37;;;;;;;13.62;5.80;;;;;;;17.63;67.94;100077.00;1685753;84;21059;-74
2023/05/24 04:18:07;;;;;;;14.93;6.58;;;;;;;17.70;67.82;100081.86;1715508;82;21070;-72
2023/05/24 04:20:38;;;;;;;12.70;6.72;;;;;;;17.77;67.77;100081.69;1715417;82;21047;-74
2023/05/24 04:23:07;;;;;;;12.05;5.95;;;;;;;17.82;67.60;100073.45;1715415;84;21074;-73
2023/05/24 04:25:38;;;;;;;10.05;5.85;;;;;;;17.87;67.50;100082.69;1624856;87;21133;-74
2023/05/24 04:28:09;;;;;;;15.53;6.45;;;;;;;17.93;67.24;100080.28;1633547;88;21078;-72
2023/05/24 04:30:38;;;;;;;15.90;6.75;;;;;;;18.02;66.81;100080.70;1624452;87;21157;-74
2023/05/24 04:33:08;;;;;;;14.25;6.25;;;;;;;18.11;66.59;100083.88;1633553;88;21226;-74
2023/05/24 04:35:39;;;;;;;14.95;7.03;;;;;;;18.18;66.51;100083.98;1624569;87;21095;-75
2023/05/24 04:38:08;;;;;;;13.72;6.92;;;;;;;18.24;66.22;100079.38;1633802;88;21069;-72
2023/05/24 04:40:38;;;;;;;10.98;6.12;;;;;;;18.30;65.76;100081.97;1624571;87;21086;-75
2023/05/24 04:43:09;;;;;;;9.80;6.15;;;;;;;18.40;65.19;100085.97;1633659;86;21101;-72
2023/05/24 04:45:37;;;;;;;12.68;6.25;;;;;;;18.47;64.59;100084.69;1624490;87;21098;-72
2023/05/24 04:48:06;;;;;;;16.25;7.33;;;;;;;18.56;63.94;100092.86;1633499;88;21034;-74
2023/05/24 04:50:36;;;;;;;16.32;7.28;;;;;;;18.64;63.55;100089.66;1683509;84;21530;-72
2023/05/24 04:53:05;;;;;;;19.15;7.53;;;;;;;18.75;63.24;100091.17;1715329;84;21472;-73
2023/05/24 04:55:34;;;;;;;13.68;7.03;;;;;;;18.88;63.09;100087.48;1715278;84;21047;-72
2023/05/24 04:58:04;;;;;;;14.00;6.75;;;;;;;19.08;63.20;100091.03;1715269;84;21019;-74
2023/05/24 05:00:32;;;;;;;11.15;6.05;;;;;;;19.32;62.85;100091.00;1715260;84;21091;-74
2023/05/24 05:03:01;;;;;;;9.00;6.30;;;;;;;19.59;61.96;100086.88;1715334;84;21545;-74
2023/05/24 05:05:30;;;;;;;19.20;7.70;;;;;;;19.90;61.15;100092.67;1715344;84;21073;-73
2023/05/24 05:07:59;;;;;;;13.32;6.60;;;;;;;20.24;60.00;100093.22;1715297;84;21039;-74
2023/05/24 05:10:29;;;;;;;12.20;5.35;;;;;;;20.54;59.12;100089.23;1715158;84;21091;-72
2023/05/24 05:12:57;;;;;;;10.40;5.10;;;;;;;20.83;58.05;100091.06;1715155;84;21074;-73
2023/05/24 05:15:26;;;;;;;12.68;5.35;;;;;;;21.15;57.51;100095.05;1715306;84;21038;-74
2023/05/24 05:17:56;;;;;;;8.73;5.55;;;;;;;21.51;56.24;100090.44;1715597;84;21058;-73
2023/05/24 05:20:24;;;;;;;9.83;5.40;;;;;;;21.77;55.40;100094.07;1715158;83;21064;-74
2023/05/24 05:22:53;;;;;;;13.50;5.87;;;;;;;22.01;54.57;100095.73;1715393;82;21035;-72
2023/05/24 05:25:22;;;;;;;12.47;5.72;;;;;;;22.22;53.70;100095.20;1715374;84;21142;-72
2023/05/24 05:27:51;;;;;;;12.70;5.00;;;;;;;22.40;53.35;100091.80;1715330;82;21174;-73
2023/05/24 05:30:20;;;;;;;10.80;5.00;;;;;;;22.60;52.57;100092.30;1715404;83;21507;-73
2023/05/24 05:32:49;;;;;;;9.38;4.10;;;;;;;22.82;51.35;100097.58;1715155;84;21086;-72
2023/05/24 05:35:18;;;;;;;10.30;4.40;;;;;;;23.01;50.73;100097.20;1715410;84;21043;-74
2023/05/24 05:37:47;;;;;;;10.03;4.28;;;;;;;23.22;49.83;100098.48;1715135;84;21050;-73
2023/05/24 05:40:16;;;;;;;8.58;3.95;;;;;;;23.34;49.36;100098.41;1715423;84;21027;-74
2023/05/24 05:42:46;;;;;;;8.20;4.12;;;;;;;23.53;48.91;100097.75;1715206;84;21560;-72
2023/05/24 05:45:15;;;;;;;9.98;3.95;;;;;;;23.66;47.72;100109.15;1715573;84;21497;-74
2023/05/24 05:47:44;;;;;;;8.93;4.03;;;;;;;23.75;47.43;100108.52;1715518;84;21117;-73
2023/05/24 05:50:13;;;;;;;10.08;3.98;;;;;;;23.84;47.08;100104.81;1715159;84;21046;-72
2023/05/24 05:52:43;;;;;;;10.72;4.37;;;;;;;24.02;47.59;100103.25;1715428;83;21279;-74
2023/05/24 05:55:12;;;;;;;8.08;3.60;;;;;;;24.32;46.97;100107.21;1715299;84;21487;-73
2023/05/24 05:57:41;;;;;;;9.70;3.42;;;;;;;24.67;45.96;100103.73;1715210;84;21559;-72
2023/05/24 06:00:12;;;;;;;7.92;3.00;;;;;;;25.06;45.07;100102.18;1715286;84;21090;-73
2023/05/24 06:02:43;;;;;;;10.05;3.83;;;;;;;25.43;44.17;100112.61;1624970;87;21521;-72
2023/05/24 06:05:12;;;;;;;9.60;3.47;;;;;;;25.75;43.14;100112.43;1633738;88;21128;-73
2023/05/24 06:07:44;;;;;;;6.65;3.00;;;;;;;25.97;41.35;100115.42;1624795;88;21054;-73
2023/05/24 06:10:13;;;;;;;8.23;2.80;;;;;;;26.09;41.20;100104.57;1633398;88;21201;-72
2023/05/24 06:12:43;;;;;;;5.22;2.58;;;;;;;26.29;40.80;100112.36;1624677;88;21090;-72
2023/05/24 06:15:13;;;;;;;8.75;3.37;;;;;;;26.55;40.14;100116.39;1633622;88;21603;-73
2023/05/24 06:17:42;;;;;;;7.37;3.40;;;;;;;26.84;39.98;100114.13;1624790;88;21114;-75
2023/05/24 06:20:14;;;;;;;5.83;2.50;;;;;;;27.16;39.12;100120.80;1651681;83;21059;-71
2023/05/24 06:22:43;;;;;;;7.80;2.75;;;;;;;27.36;38.96;100114.74;1710269;83;21218;-71
2023/05/24 06:25:14;;;;;;;7.37;3.05;;;;;;;27.70;38.24;100111.43;1710188;84;21079;-71
2023/05/24 06:27:44;;;;;;;9.80;3.70;;;;;;;27.92;37.83;100110.60;1710275;84;21078;-71
2023/05/24 06:30:14;;;;;;;9.63;3.50;;;;;;;28.10;37.49;100118.05;1707911;83;21070;-74
2023/05/24 06:32:44;;;;;;;9.28;3.37;;;;;;;28.06;37.35;100120.42;1702556;84;21055;-72
2023/05/24 06:35:13;;;;;;;7.30;3.77;;;;;;;27.95;37.44;100115.59;1702631;84;21111;-72
2023/05/24 06:37:43;;;;;;;8.55;3.47;;;;;;;27.89;37.67;100118.28;1702482;84;21051;-72
2023/05/24 06:40:12;;;;;;;8.18;3.83;;;;;;;27.91;37.31;100119.38;1702452;84;21118;-72
2023/05/24 06:42:41;;;;;;;10.50;3.20;;;;;;;27.81;37.24;100121.86;1702497;83;21028;-72
2023/05/24 06:45:11;;;;;;;9.10;3.58;;;;;;;27.80;37.45;100118.80;1702533;84;21043;-71
2023/05/24 06:47:41;;;;;;;8.53;4.17;;;;;;;27.86;37.24;100109.64;1702424;84;21539;-72
2023/05/24 06:50:10;;;;;;;6.92;3.50;;;;;;;27.91;37.64;100115.15;1702357;84;21586;-72
2023/05/24 06:52:40;;;;;;;8.70;4.03;;;;;;;28.10;37.26;100111.00;1702377;84;21511;-74
2023/05/24 06:55:09;;;;;;;8.65;4.00;;;;;;;28.24;37.12;100112.36;1702359;84;21479;-73
2023/05/24 06:57:38;;;;;;;9.85;4.17;;;;;;;28.25;36.93;100110.38;1702394;84;21051;-72
2023/05/24 07:00:11;;;;;;;10.68;4.00;;;;;;;28.16;36.72;100109.47;1702432;84;21560;-72
2023/05/24 07:02:39;;;;;;;7.65;3.87;;;;;;;27.99;37.25;100110.18;1702538;84;21564;-72
2023/05/24 07:05:11;;;;;;;6.08;3.98;;;;;;;27.94;37.63;100113.09;1702366;84;21547;-74
2023/05/24 07:07:42;;;;;;;7.80;3.83;;;;;;;28.06;37.17;100114.20;1702502;84;21079;-72
2023/05/24 07:10:12;;;;;;;11.18;3.80;;;;;;;28.06;37.17;100112.80;1702433;84;21483;-74
2023/05/24 07:12:41;;;;;;;9.30;4.05;;;;;;;28.10;37.16;100108.77;1702518;83;21062;-73
2023/05/24 07:15:12;;;;;;;8.25;3.62;;;;;;;28.23;37.14;100112.66;1702444;84;21043;-73
2023/05/24 07:17:41;;;;;;;10.63;4.10;;;;;;;28.48;36.75;100117.63;1702599;84;21542;-71
2023/05/24 07:20:12;;;;;;;7.45;3.70;;;;;;;28.68;36.19;100118.50;1689173;84;21063;-73
2023/05/24 07:22:42;;;;;;;7.58;3.15;;;;;;;28.81;35.80;100115.89;1702332;84;21075;-74
2023/05/24 07:25:12;;;;;;;8.03;3.08;;;;;;;29.04;35.51;100122.55;1702546;84;21529;-72
2023/05/24 07:27:42;;;;;;;13.75;3.87;;;;;;;29.28;34.49;100118.48;1702523;84;21111;-73
2023/05/24 07:30:12;;;;;;;8.73;3.35;;;;;;;29.50;34.17;100118.37;1703503;83;21047;-73
2023/05/24 07:32:43;;;;;;;7.35;2.60;;;;;;;29.67;33.69;100118.96;1707747;84;21491;-72
2023/05/24 07:35:11;;;;;;;10.93;3.12;;;;;;;29.76;32.74;100116.97;1710134;82;21122;-73
2023/05/24 07:37:41;;;;;;;7.30;3.08;;;;;;;29.79;32.60;100116.88;1710257;84;21043;-73
2023/05/24 07:40:11;;;;;;;7.75;2.83;;;;;;;29.86;31.83;100118.04;1710520;84;21046;-72
2023/05/24 07:42:41;;;;;;;6.30;2.95;;;;;;;29.88;31.93;100108.65;1710354;84;21054;-73
2023/05/24 07:45:10;;;;;;;8.73;2.95;;;;;;;29.91;31.55;100117.04;1710447;84;20992;-73
2023/05/24 07:47:39;;;;;;;5.67;2.83;;;;;;;29.84;30.56;100119.54;1710393;84;21035;-73
2023/05/24 07:50:09;;;;;;;5.28;2.95;;;;;;;29.77;30.90;100116.39;1712170;82;21077;-74
2023/05/24 07:52:38;;;;;;;8.15;2.70;;;;;;;29.57;31.55;100117.88;1699691;82;21074;-72
2023/05/24 07:55:08;;;;;;;8.65;3.72;;;;;;;29.47;31.96;100119.04;1714019;82;21064;-73
2023/05/24 07:57:37;;;;;;;13.15;4.00;;;;;;;29.47;32.01;100121.86;1743055;82;21565;-73
2023/05/24 08:00:11;;;;;;;6.45;3.20;;;;;;;29.62;32.25;100124.20;1735805;82;21033;-72
2023/05/24 08:02:42;;;;;;;9.13;3.20;;;;;;;29.89;31.46;100133.49;1702540;83;21041;-73
2023/05/24 08:05:12;;;;;;;5.65;2.90;;;;;;;30.07;31.09;100124.48;1725163;82;21068;-67
2023/05/24 08:07:41;;;;;;;9.10;2.85;;;;;;;30.03;31.23;100124.31;1717926;82;21677;-73
2023/05/24 08:10:13;;;;;;;9.58;3.30;;;;;;;29.89;31.20;100121.61;1742891;82;21067;-71
2023/05/24 08:12:43;;;;;;;10.15;3.87;;;;;;;29.62;31.90;100128.43;1717638;82;21472;-72
2023/05/24 08:15:15;;;;;;;6.17;3.08;;;;;;;29.58;31.62;100131.67;1743128;82;21549;-73
2023/05/24 08:17:44;;;;;;;7.22;2.92;;;;;;;29.76;31.69;100126.02;1742888;82;21079;-72
2023/05/24 08:20:14;;;;;;;14.55;5.60;;;;;;;29.92;31.20;100127.20;1742796;82;21047;-75
2023/05/24 08:22:44;;;;;;;21.30;3.75;;;;;;;30.05;30.74;100119.74;1743066;82;21032;-72
2023/05/24 08:25:13;;;;;;;8.50;3.47;;;;;;;30.31;30.63;100123.93;1739254;82;21020;-76
2023/05/24 08:27:41;;;;;;;7.78;3.33;;;;;;;30.51;30.22;100121.79;1717660;83;21097;-76
2023/05/24 08:30:12;;;;;;;6.90;3.22;;;;;;;30.51;30.21;100126.86;1725340;82;21129;-71
2023/05/24 08:32:41;;;;;;;8.73;2.92;;;;;;;30.58;29.66;100113.06;1717639;82;21488;-72
2023/05/24 08:35:10;;;;;;;11.05;3.10;;;;;;;30.70;29.34;100115.79;1717654;83;22000;-75
2023/05/24 08:37:40;;;;;;;9.68;2.95;;;;;;;30.84;29.18;100109.31;1716467;82;21053;-74
2023/05/24 08:40:10;;;;;;;4.25;2.40;;;;;;;30.89;28.51;100099.22;1717981;82;21057;-74
2023/05/24 08:42:39;;;;;;;6.62;2.55;;;;;;;30.90;28.68;100094.64;1717447;82;21477;-71
2023/05/24 08:45:10;;;;;;;6.83;2.80;;;;;;;30.98;28.44;100100.59;1717884;83;21056;-79
2023/05/24 08:47:41;;;;;;;5.37;2.10;;;;;;;30.75;28.27;100102.29;1717920;82;21026;-71
2023/05/24 08:50:10;;;;;;;6.72;2.70;;;;;;;30.44;28.73;100105.34;1725106;82;21464;-61
2023/05/24 08:52:39;;;;;;;10.88;4.08;;;;;;;30.32;28.77;100098.16;1718032;82;21045;-73
2023/05/24 08:55:09;;;;;;;12.03;3.35;;;;;;;30.23;28.74;100095.93;1717554;82;21028;-75
2023/05/24 08:57:40;;;;;;;7.92;2.92;;;;;;;30.16;29.85;100096.45;1701410;83;21470;-76
2023/05/24 09:00:11;;;;;;;7.65;3.02;;;;;;;30.09;30.32;100101.78;1731463;82;21011;-76
2023/05/24 09:02:41;;;;;;;7.08;3.02;;;;;;;29.92;30.29;100103.20;1743145;82;21040;-77
2023/05/24 09:05:16;;;;;;;8.93;2.60;;;;;;;29.62;30.55;100108.66;1743290;82;21020;-74
2023/05/24 09:07:45;;;;;;;11.22;2.80;;;;;;;29.32;30.90;100105.37;1743192;82;21000;-74
2023/05/24 09:10:14;;;;;;;8.88;3.40;;;;;;;29.01;31.28;100106.86;1743052;82;21031;-68
2023/05/24 09:12:46;;;;;;;10.72;3.45;;;;;;;28.81;31.74;100105.45;1743219;82;21404;-76
2023/05/24 09:15:17;;;;;;;9.75;3.17;;;;;;;28.58;32.23;100104.66;1743206;82;21463;-72
2023/05/24 09:17:46;;;;;;;7.55;3.58;;;;;;;28.31;32.61;100107.67;1743151;82;21519;-77
2023/05/24 09:20:15;;;;;;;6.15;3.10;;;;;;;28.09;33.14;100114.14;1743019;82;21596;-78
2023/05/24 09:22:43;;;;;;;9.18;3.20;;;;;;;27.91;34.03;100115.15;1739241;82;21099;-75
2023/05/24 09:25:13;;;;;;;18.07;3.90;;;;;;;27.72;34.36;100123.20;1701499;82;21065;-74
2023/05/24 09:27:45;;;;;;;4.30;2.33;;;;;;;27.43;34.14;100115.14;1725213;82;21072;-75
2023/05/24 09:30:16;;;;;;;5.17;2.80;;;;;;;27.06;35.12;100125.23;1717617;83;21563;-72
2023/05/24 09:32:56;;;;;;;5.28;2.17;;;;;;;26.83;35.27;100124.28;1729311;81;21152;-75
2023/05/24 09:35:28;;;;;;;5.05;1.95;;;;;;;26.71;35.07;100124.80;1703499;84;21070;-76
2023/05/24 09:37:58;;;;;;;6.37;2.20;;;;;;;26.46;34.96;100140.73;1704728;83;21620;-74
2023/05/24 09:40:28;;;;;;;5.80;2.25;;;;;;;26.46;34.96;100140.73;1704653;84;21528;-75
2023/05/24 09:43:11;;;;;;;8.25;2.30;;;;;;;26.34;35.04;100131.96;1704829;83;21103;-73
2023/05/24 09:45:47;;;;;;;8.20;2.80;;;;;;;26.31;35.57;100125.53;1704641;84;21536;-76
2023/05/24 09:48:16;;;;;;;6.47;2.70;;;;;;;26.34;35.59;100126.34;1704878;84;21057;-75
2023/05/24 09:51:00;;;;;;;8.50;3.05;;;;;;;26.34;35.29;100131.96;1704685;83;21485;-75
2023/05/24 09:53:28;;;;;;;6.85;2.70;;;;;;;26.35;35.39;100129.42;1674876;84;21077;-74
2023/05/24 09:55:57;;;;;;;10.35;3.17;;;;;;;26.35;36.48;100130.25;1704755;83;21037;-75
2023/05/24 09:58:31;;;;;;;9.30;3.25;;;;;;;26.34;37.50;100133.38;1704874;83;21029;-77
2023/05/24 10:01:09;;;;;;;6.75;2.90;;;;;;;26.29;38.19;100136.23;1728989;83;21079;-74
2023/05/24 10:03:38;;;;;;;6.53;2.98;;;;;;;26.30;38.71;100130.31;1731649;83;21007;-74
2023/05/24 10:06:10;;;;;;;8.78;4.08;;;;;;;26.30;38.84;100128.08;1731453;82;21079;-74
2023/05/24 10:08:40;;;;;;;5.72;2.90;;;;;;;26.31;39.05;100128.34;1731752;83;21094;-71
2023/05/24 10:11:09;;;;;;;6.15;3.02;;;;;;;26.29;39.41;100129.22;1731645;82;21160;-76
2023/05/24 10:13:38;;;;;;;7.17;3.10;;;;;;;26.25;39.52;100125.36;1731736;83;21035;-75
2023/05/24 10:16:06;;;;;;;4.50;2.55;;;;;;;26.22;39.15;100122.59;1731496;82;21032;-73
2023/05/24 10:18:37;;;;;;;8.90;2.72;;;;;;;26.23;38.86;100123.69;1733550;81;21098;-75
2023/05/24 10:21:09;;;;;;;6.58;2.67;;;;;;;26.28;39.05;100135.41;1761795;81;21096;-75
2023/05/24 10:23:38;;;;;;;7.85;2.83;;;;;;;26.28;38.60;100131.77;1761783;81;21020;-76
2023/05/24 10:26:08;;;;;;;7.72;2.55;;;;;;;26.29;38.48;100142.69;1755376;81;21063;-74
2023/05/24 10:28:47;;;;;;;6.60;2.95;;;;;;;26.27;38.68;100142.73;1739328;81;21090;-75
2023/05/24 10:31:30;;;;;;;3.55;2.62;;;;;;;26.26;39.09;100154.55;1738334;81;21527;-74
2023/05/24 10:34:01;;;;;;;7.92;2.55;;;;;;;26.27;38.51;100142.73;1732508;82;21059;-74
2023/05/24 10:36:32;;;;;;;5.97;2.50;;;;;;;26.30;38.22;100150.55;1734143;82;21091;-75
2023/05/24 10:39:02;;;;;;;5.67;2.30;;;;;;;26.35;37.49;100142.89;1734320;83;21011;-73
2023/05/24 10:41:44;;;;;;;6.70;2.42;;;;;;;26.41;37.28;100139.42;1734458;82;21126;-78
2023/05/24 10:44:16;;;;;;;5.37;2.42;;;;;;;26.43;37.04;100139.94;1734073;82;21132;-75
2023/05/24 10:47:16;;;;;;;10.50;2.98;;;;;;;26.42;36.77;100129.84;1734195;82;21051;-75
2023/05/24 10:49:51;;;;;;;5.97;2.35;;;;;;;26.42;36.98;100136.30;1734515;82;21031;-75
2023/05/24 10:52:20;;;;;;;5.97;2.70;;;;;;;26.41;36.46;100130.42;1734439;83;21059;-74
2023/05/24 10:55:08;;;;;;;5.75;2.60;;;;;;;26.38;36.48;100133.02;1714695;82;21039;-74
2023/05/24 10:57:38;;;;;;;4.08;2.35;;;;;;;26.38;36.74;100133.84;1734802;83;21056;-75
2023/05/24 11:00:26;;;;;;;5.50;3.10;;;;;;;26.35;36.57;100137.84;1734712;83;21076;-71
2023/05/24 11:03:02;;;;;;;7.25;2.70;;;;;;;26.32;36.59;100139.84;1733779;82;21075;-74
2023/05/24 11:05:49;;;;;;;8.03;3.75;;;;;;;26.30;36.68;100140.14;1734788;82;21036;-74
2023/05/24 11:08:35;;;;;;;4.73;2.67;;;;;;;26.29;36.88;100146.08;1734900;83;21051;-76
2023/05/24 11:11:19;;;;;;;6.08;2.30;;;;;;;26.26;36.82;100145.28;1734426;82;21520;-75
2023/05/24 11:13:56;;;;;;;4.37;2.70;;;;;;;26.22;36.96;100141.69;1692834;83;21561;-74
2023/05/24 11:16:39;;;;;;;7.72;2.62;;;;;;;26.31;36.90;100139.58;1734909;83;21083;-74
2023/05/24 11:19:20;;;;;;;9.43;2.87;;;;;;;26.36;36.93;100129.11;1734458;83;21090;-75
2023/05/24 11:21:52;;;;;;;6.45;2.95;;;;;;;26.45;37.28;100134.84;1734395;82;21106;-74
2023/05/24 11:24:21;;;;;;;5.70;2.80;;;;;;;26.45;36.93;100136.25;1734710;83;21111;-72
2023/05/24 11:26:50;;;;;;;5.70;2.65;;;;;;;26.36;37.22;100139.52;1734494;82;21553;-74
2023/05/24 11:29:22;;;;;;;6.53;2.65;;;;;;;26.31;37.50;100140.41;1734584;83;21071;-74
2023/05/24 11:31:54;;;;;;;7.47;2.98;;;;;;;26.29;37.57;100138.48;1735850;82;21055;-75
2023/05/24 11:34:23;;;;;;;6.47;2.87;;;;;;;26.30;36.91;100136.50;1739394;82;21486;-77
2023/05/24 11:36:52;;;;;;;4.92;2.42;;;;;;;26.32;36.79;100134.22;1739445;81;21074;-76
2023/05/24 11:39:20;;;;;;;5.15;2.77;;;;;;;26.32;36.45;100131.41;1738796;82;21039;-76